| time (UTC) | temp C | wind direction | speed KPH | gust KPH | rain 1hr cm | rain 24hr cm | rain mn cm | humidity % | barometer mb |
| 20260507182421 | 23 | 190 | 3.2 | 6.4 | 0.00 | 0.00 | 0.00 | 56 | 1019.7 |
| 20260507181917 | 23 | 266 | 4.8 | 6.4 | 0.00 | 0.00 | 0.00 | 55 | 1019.7 |
| 20260507181414 | 24 | 170 | 0.0 | 1.6 | 0.00 | 0.00 | 0.00 | 55 | 1019.7 |
| 20260507180910 | 23 | 213 | 3.2 | 6.4 | 0.00 | 0.00 | 0.00 | 56 | 1019.9 |
| 20260507180407 | 23 | 143 | 3.2 | 4.8 | 0.00 | 0.00 | 0.00 | 58 | 1019.8 |
| 20260507175903 | 23 | 327 | 3.2 | 4.8 | 0.00 | 0.00 | 0.00 | 58 | 1019.6 |
| 20260507175400 | 23 | 254 | 4.8 | 9.7 | 0.00 | 0.00 | 0.00 | 58 | 1019.9 |
| 20260507174858 | 23 | 46 | 1.6 | 6.4 | 0.00 | 0.00 | 0.00 | 58 | 1019.9 |
| 20260507174355 | 22 | 102 | 0.0 | 3.2 | 0.00 | 0.00 | 0.00 | 59 | 1020.0 |
| 20260507173852 | 22 | 282 | 3.2 | 6.4 | 0.00 | 0.00 | 0.00 | 59 | 1019.9 |
| 20260507173349 | 22 | 155 | 1.6 | 6.4 | 0.00 | 0.00 | 0.00 | 58 | 1019.9 |
| 20260507172845 | 23 | 354 | 1.6 | 6.4 | 0.00 | 0.00 | 0.00 | 57 | 1019.9 |
| 20260507172342 | 23 | 151 | 1.6 | 4.8 | 0.00 | 0.00 | 0.00 | 56 | 1019.7 |
| 20260507171838 | 23 | 256 | 3.2 | 11.3 | 0.00 | 0.00 | 0.00 | 57 | 1019.8 |
| 20260507171335 | 22 | 131 | 0.0 | 4.8 | 0.00 | 0.00 | 0.00 | 59 | 1020.1 |
| 20260507170832 | 21 | 192 | 3.2 | 4.8 | 0.00 | 0.00 | 0.00 | 61 | 1020.0 |
| 20260507170329 | 21 | 180 | 0.0 | 4.8 | 0.00 | 0.00 | 0.00 | 62 | 1019.9 |
| 20260507165824 | 21 | 183 | 1.6 | 4.8 | 0.00 | 0.00 | 0.00 | 64 | 1020.0 |
| 20260507165321 | 21 | 255 | 3.2 | 4.8 | 0.00 | 0.00 | 0.00 | 63 | 1020.2 |
| 20260507164817 | 21 | 194 | 3.2 | 4.8 | 0.00 | 0.00 | 0.00 | 64 | 1020.0 |
| 20260507164314 | 21 | 236 | 1.6 | 3.2 | 0.00 | 0.00 | 0.00 | 64 | 1020.2 |
| 20260507163811 | 21 | 216 | 1.6 | 4.8 | 0.00 | 0.00 | 0.00 | 63 | 1019.9 |
| 20260507163309 | 20 | 56 | 3.2 | 6.4 | 0.00 | 0.00 | 0.00 | 65 | 1020.2 |
| 20260507162805 | 20 | 223 | 3.2 | 4.8 | 0.00 | 0.00 | 0.00 | 65 | 1020.3 |
| 20260507162301 | 20 | 143 | 0.0 | 4.8 | 0.00 | 0.00 | 0.00 | 66 | 1020.2 |
| 20260507161758 | 20 | 67 | 1.6 | 3.2 | 0.00 | 0.00 | 0.00 | 66 | 1020.1 |
| 20260507161254 | 20 | 183 | 3.2 | 4.8 | 0.00 | 0.00 | 0.00 | 67 | 1020.2 |
| 20260507160750 | 20 | 266 | 3.2 | 4.8 | 0.00 | 0.00 | 0.00 | 65 | 1020.2 |
| 20260507160247 | 19 | 176 | 0.0 | 3.2 | 0.00 | 0.00 | 0.00 | 68 | 1020.3 |
| 20260507155743 | 20 | 138 | 0.0 | 3.2 | 0.00 | 0.00 | 0.00 | 66 | 1020.1 |
| 20260507155239 | 20 | 306 | 3.2 | 3.2 | 0.00 | 0.00 | 0.00 | 66 | 1020.1 |
| 20260507154736 | 19 | 137 | 0.0 | 0.0 | 0.00 | 0.00 | 0.00 | 68 | 1020.2 |
| 20260507154233 | 18 | 136 | 0.0 | 3.2 | 0.00 | 0.00 | 0.00 | 69 | 1020.4 |
| 20260507153730 | 18 | 219 | 1.6 | 4.8 | 0.00 | 0.00 | 0.00 | 72 | 1020.2 |
| 20260507153226 | 18 | 226 | 1.6 | 3.2 | 0.00 | 0.00 | 0.00 | 71 | 1020.2 |
| 20260507152723 | 17 | 147 | 0.0 | 1.6 | 0.00 | 0.00 | 0.00 | 73 | 1020.1 |
| 20260507152219 | 17 | 221 | 1.6 | 4.8 | 0.00 | 0.00 | 0.00 | 74 | 1020.3 |
| 20260507151715 | 16 | 230 | 1.6 | 4.8 | 0.00 | 0.00 | 0.00 | 75 | 1020.3 |
| 20260507151212 | 17 | 254 | 3.2 | 4.8 | 0.00 | 0.00 | 0.00 | 73 | 1020.2 |
| 20260507150709 | 17 | 39 | 0.0 | 0.0 | 0.00 | 0.00 | 0.00 | 72 | 1020.6 |
| 20260507150206 | 17 | 86 | 0.0 | 0.0 | 0.00 | 0.00 | 0.00 | 73 | 1020.3 |
| 20260507145701 | 17 | 119 | 0.0 | 0.0 | 0.00 | 0.00 | 0.00 | 73 | 1020.2 |
| 20260507145158 | 17 | 143 | 0.0 | 0.0 | 0.00 | 0.00 | 0.00 | 75 | 1020.3 |
| 20260507144655 | 16 | 131 | 0.0 | 0.0 | 0.00 | 0.00 | 0.00 | 77 | 1020.5 |
| 20260507144153 | 16 | 137 | 0.0 | 0.0 | 0.00 | 0.00 | 0.00 | 77 | 1020.3 |
| 20260507143649 | 16 | 129 | 0.0 | 0.0 | 0.00 | 0.00 | 0.00 | 77 | 1020.5 |
| 20260507143147 | 15 | 141 | 0.0 | 0.0 | 0.00 | 0.00 | 0.00 | 80 | 1020.3 |
| 20260507142642 | 15 | 153 | 0.0 | 0.0 | 0.00 | 0.00 | 0.00 | 81 | 1020.4 |
| 20260507142139 | 14 | 122 | 0.0 | 0.0 | 0.00 | 0.00 | 0.00 | 82 | 1020.3 |
| 20260507141635 | 13 | 122 | 0.0 | 0.0 | 0.00 | 0.00 | 0.00 | 84 | 1020.1 |
| 20260507141132 | 13 | 138 | 0.0 | 0.0 | 0.00 | 0.00 | 0.00 | 86 | 1020.0 |
| 20260507140628 | 13 | 189 | 0.0 | 0.0 | 0.00 | 0.00 | 0.00 | 86 | 1020.3 |
| 20260507140126 | 13 | 192 | 0.0 | 0.0 | 0.00 | 0.00 | 0.00 | 86 | 1020.0 |
| 20260507135623 | 12 | 196 | 0.0 | 0.0 | 0.00 | 0.00 | 0.00 | 89 | 1020.1 |
| 20260507135120 | 12 | 198 | 0.0 | 0.0 | 0.00 | 0.00 | 0.00 | 89 | 1019.9 |
| 20260507134616 | 12 | 198 | 0.0 | 0.0 | 0.00 | 0.00 | 0.00 | 90 | 1019.8 |
| 20260507134113 | 11 | 199 | 0.0 | 0.0 | 0.00 | 0.00 | 0.00 | 92 | 1019.8 |
| 20260507133609 | 11 | 199 | 0.0 | 0.0 | 0.00 | 0.00 | 0.00 | 92 | 1019.9 |
| 20260507133107 | 11 | 199 | 0.0 | 0.0 | 0.00 | 0.00 | 0.00 | 92 | 1019.8 |
| 20260507132603 | 11 | 199 | 0.0 | 0.0 | 0.00 | 0.00 | 0.00 | 92 | 1019.8 |
| 20260507132059 | 11 | 199 | 0.0 | 0.0 | 0.00 | 0.00 | 0.00 | 92 | 1019.6 |
| 20260507131556 | 11 | 199 | 0.0 | 0.0 | 0.00 | 0.00 | 0.00 | 92 | 1019.8 |
| 20260507131054 | 11 | 199 | 0.0 | 0.0 | 0.00 | 0.00 | 0.00 | 93 | 1019.7 |
| 20260507130550 | 11 | 199 | 0.0 | 0.0 | 0.00 | 0.00 | 0.00 | 93 | 1019.8 |
| 20260507130049 | 11 | 199 | 0.0 | 0.0 | 0.00 | 0.00 | 0.00 | 93 | 1019.6 |
| 20260507125547 | 11 | 199 | 0.0 | 0.0 | 0.00 | 0.00 | 0.00 | 93 | 1019.4 |
| 20260507125044 | 11 | 199 | 0.0 | 0.0 | 0.00 | 0.00 | 0.00 | 93 | 1019.3 |
| 20260507124540 | 11 | 199 | 0.0 | 0.0 | 0.00 | 0.00 | 0.00 | 93 | 1019.4 |
| 20260507124038 | 10 | 199 | 0.0 | 0.0 | 0.00 | 0.00 | 0.00 | 93 | 1019.4 |
| 20260507123536 | 10 | 199 | 0.0 | 0.0 | 0.00 | 0.00 | 0.00 | 93 | 1019.3 |
| 20260507123033 | 10 | 199 | 0.0 | 0.0 | 0.00 | 0.00 | 0.00 | 93 | 1019.7 |
| 20260507122528 | 11 | 199 | 0.0 | 0.0 | 0.00 | 0.00 | 0.00 | 92 | 1019.4 |
| 20260507122024 | 11 | 199 | 0.0 | 0.0 | 0.00 | 0.00 | 0.00 | 92 | 1019.6 |
| 20260507121520 | 11 | 199 | 0.0 | 0.0 | 0.00 | 0.00 | 0.00 | 92 | 1019.6 |
| 20260507121016 | 11 | 199 | 0.0 | 0.0 | 0.00 | 0.00 | 0.00 | 92 | 1019.4 |
| 20260507120512 | 11 | 199 | 0.0 | 0.0 | 0.00 | 0.00 | 0.00 | 92 | 1019.6 |
| 20260507120009 | 11 | 199 | 0.0 | 0.0 | 0.00 | 0.00 | 0.00 | 93 | 1019.4 |
| 20260507115505 | 11 | 199 | 0.0 | 0.0 | 0.00 | 0.00 | 0.00 | 92 | 1019.4 |
| 20260507115001 | 11 | 199 | 0.0 | 0.0 | 0.00 | 0.00 | 0.00 | 92 | 1019.4 |
| 20260507114457 | 11 | 199 | 0.0 | 0.0 | 0.00 | 0.00 | 0.00 | 91 | 1019.4 |
| 20260507113955 | 11 | 199 | 0.0 | 0.0 | 0.00 | 0.00 | 0.00 | 91 | 1019.3 |
| 20260507113452 | 11 | 199 | 0.0 | 0.0 | 0.00 | 0.00 | 0.00 | 91 | 1019.6 |
| 20260507112949 | 11 | 199 | 0.0 | 0.0 | 0.00 | 0.00 | 0.00 | 91 | 1019.7 |
| 20260507112447 | 11 | 199 | 0.0 | 0.0 | 0.00 | 0.00 | 0.00 | 91 | 1019.7 |
| 20260507111943 | 11 | 199 | 0.0 | 0.0 | 0.00 | 0.00 | 0.00 | 91 | 1019.7 |
| 20260507111441 | 11 | 199 | 0.0 | 0.0 | 0.00 | 0.00 | 0.00 | 91 | 1019.6 |
| 20260507110937 | 11 | 199 | 0.0 | 0.0 | 0.00 | 0.00 | 0.00 | 90 | 1019.7 |
| 20260507110433 | 11 | 199 | 0.0 | 0.0 | 0.00 | 0.00 | 0.00 | 90 | 1019.8 |
| 20260507105930 | 12 | 199 | 0.0 | 0.0 | 0.00 | 0.00 | 0.00 | 90 | 1020.0 |
| 20260507105427 | 12 | 198 | 0.0 | 0.0 | 0.00 | 0.00 | 0.00 | 90 | 1019.8 |
| 20260507104923 | 11 | 199 | 0.0 | 0.0 | 0.00 | 0.00 | 0.00 | 90 | 1019.9 |
| 20260507104420 | 11 | 199 | 0.0 | 0.0 | 0.00 | 0.00 | 0.00 | 90 | 1019.8 |
| 20260507103916 | 11 | 199 | 0.0 | 0.0 | 0.00 | 0.00 | 0.00 | 91 | 1019.8 |
| 20260507103413 | 11 | 199 | 0.0 | 0.0 | 0.00 | 0.00 | 0.00 | 90 | 1020.1 |
| 20260507102909 | 11 | 199 | 0.0 | 0.0 | 0.00 | 0.00 | 0.00 | 90 | 1020.0 |
| 20260507102406 | 11 | 199 | 0.0 | 0.0 | 0.00 | 0.00 | 0.00 | 90 | 1019.8 |
| 20260507101902 | 11 | 199 | 0.0 | 0.0 | 0.00 | 0.00 | 0.00 | 89 | 1020.0 |
| 20260507101357 | 12 | 199 | 0.0 | 0.0 | 0.00 | 0.00 | 0.00 | 89 | 1019.9 |
| 20260507100854 | 12 | 198 | 0.0 | 0.0 | 0.00 | 0.00 | 0.00 | 89 | 1019.8 |
| 20260507100352 | 12 | 198 | 0.0 | 0.0 | 0.00 | 0.00 | 0.00 | 90 | 1019.8 |
| 20260507095850 | 12 | 198 | 0.0 | 0.0 | 0.00 | 0.00 | 0.00 | 90 | 1019.9 |
| 20260507095346 | 11 | 198 | 0.0 | 0.0 | 0.00 | 0.00 | 0.00 | 90 | 1020.1 |
| 20260507094843 | 12 | 198 | 0.0 | 0.0 | 0.00 | 0.00 | 0.00 | 90 | 1020.1 |
| 20260507094339 | 12 | 198 | 0.0 | 0.0 | 0.00 | 0.00 | 0.00 | 90 | 1020.0 |
| 20260507093837 | 11 | 199 | 0.0 | 0.0 | 0.00 | 0.00 | 0.00 | 89 | 1020.0 |
| 20260507093335 | 12 | 199 | 0.0 | 0.0 | 0.00 | 0.00 | 0.00 | 89 | 1020.0 |
| 20260507092833 | 12 | 199 | 0.0 | 0.0 | 0.00 | 0.00 | 0.00 | 89 | 1020.2 |
| 20260507092329 | 12 | 199 | 0.0 | 0.0 | 0.00 | 0.00 | 0.00 | 88 | 1020.3 |
| 20260507091825 | 12 | 199 | 0.0 | 0.0 | 0.00 | 0.00 | 0.00 | 87 | 1020.1 |
| 20260507091322 | 12 | 199 | 0.0 | 0.0 | 0.00 | 0.00 | 0.00 | 88 | 1020.3 |
| 20260507090818 | 12 | 205 | 0.0 | 0.0 | 0.00 | 0.00 | 0.00 | 90 | 1020.3 |
| 20260507090314 | 12 | 197 | 0.0 | 0.0 | 0.00 | 0.00 | 0.00 | 90 | 1020.2 |
| 20260507085811 | 12 | 197 | 0.0 | 0.0 | 0.00 | 0.00 | 0.00 | 90 | 1020.5 |
| 20260507085308 | 12 | 197 | 0.0 | 0.0 | 0.00 | 0.00 | 0.00 | 89 | 1020.4 |
| 20260507084806 | 12 | 197 | 0.0 | 0.0 | 0.00 | 0.00 | 0.00 | 89 | 1020.5 |
| 20260507084301 | 12 | 197 | 0.0 | 0.0 | 0.00 | 0.00 | 0.00 | 89 | 1020.6 |
| 20260507083759 | 12 | 197 | 0.0 | 0.0 | 0.00 | 0.00 | 0.00 | 89 | 1020.5 |
| 20260507083255 | 12 | 197 | 0.0 | 0.0 | 0.00 | 0.00 | 0.00 | 89 | 1020.6 |
| 20260507082751 | 12 | 197 | 0.0 | 0.0 | 0.00 | 0.00 | 0.00 | 89 | 1020.7 |
| 20260507082247 | 12 | 197 | 0.0 | 0.0 | 0.00 | 0.00 | 0.00 | 89 | 1020.7 |
| 20260507081744 | 12 | 197 | 0.0 | 0.0 | 0.00 | 0.00 | 0.00 | 89 | 1020.6 |
| 20260507081240 | 12 | 197 | 0.0 | 0.0 | 0.00 | 0.00 | 0.00 | 89 | 1020.8 |
| 20260507080737 | 12 | 197 | 0.0 | 0.0 | 0.00 | 0.00 | 0.00 | 90 | 1020.9 |
| 20260507080233 | 12 | 197 | 0.0 | 0.0 | 0.00 | 0.00 | 0.00 | 91 | 1020.8 |
| 20260507075729 | 12 | 198 | 0.0 | 0.0 | 0.00 | 0.00 | 0.00 | 90 | 1020.6 |
| 20260507075225 | 12 | 198 | 0.0 | 0.0 | 0.00 | 0.00 | 0.00 | 91 | 1020.8 |
| 20260507074722 | 12 | 198 | 0.0 | 0.0 | 0.00 | 0.00 | 0.00 | 91 | 1020.8 |
| 20260507074220 | 12 | 198 | 0.0 | 0.0 | 0.00 | 0.00 | 0.00 | 92 | 1020.8 |
| 20260507073716 | 12 | 201 | 0.0 | 0.0 | 0.00 | 0.00 | 0.00 | 94 | 1020.8 |
| 20260507073213 | 11 | 202 | 0.0 | 0.0 | 0.00 | 0.00 | 0.00 | 94 | 1020.8 |
| 20260507072711 | 12 | 203 | 0.0 | 0.0 | 0.00 | 0.00 | 0.00 | 94 | 1020.9 |
| 20260507072208 | 12 | 203 | 0.0 | 0.0 | 0.00 | 0.00 | 0.00 | 94 | 1020.9 |
| 20260507071705 | 12 | 203 | 0.0 | 0.0 | 0.00 | 0.00 | 0.00 | 94 | 1020.9 |
| 20260507071202 | 12 | 203 | 0.0 | 0.0 | 0.00 | 0.00 | 0.00 | 93 | 1021.1 |
| 20260507070659 | 11 | 203 | 0.0 | 0.0 | 0.00 | 0.00 | 0.00 | 93 | 1021.2 |
| 20260507070155 | 12 | 203 | 0.0 | 0.0 | 0.00 | 0.00 | 0.00 | 93 | 1021.0 |
| 20260507065652 | 12 | 203 | 0.0 | 0.0 | 0.00 | 0.00 | 0.00 | 92 | 1021.1 |
| 20260507065149 | 12 | 203 | 0.0 | 0.0 | 0.00 | 0.00 | 0.00 | 92 | 1020.9 |
| 20260507064646 | 12 | 203 | 0.0 | 0.0 | 0.00 | 0.00 | 0.00 | 92 | 1021.1 |
| 20260507064145 | 12 | 203 | 0.0 | 0.0 | 0.00 | 0.00 | 0.00 | 92 | 1021.1 |
| 20260507063642 | 12 | 204 | 0.0 | 0.0 | 0.00 | 0.00 | 0.00 | 92 | 1021.1 |
| 20260507063139 | 12 | 205 | 0.0 | 0.0 | 0.00 | 0.00 | 0.00 | 92 | 1021.1 |
| 20260507062635 | 12 | 205 | 0.0 | 0.0 | 0.00 | 0.00 | 0.00 | 92 | 1021.1 |
| 20260507062133 | 12 | 205 | 0.0 | 0.0 | 0.00 | 0.00 | 0.00 | 92 | 1021.1 |
| 20260507061631 | 12 | 205 | 0.0 | 0.0 | 0.00 | 0.00 | 0.00 | 91 | 1021.1 |
| 20260507061129 | 12 | 206 | 0.0 | 0.0 | 0.00 | 0.00 | 0.00 | 91 | 1021.2 |
| 20260507060627 | 12 | 206 | 0.0 | 0.0 | 0.00 | 0.00 | 0.00 | 91 | 1021.3 |
| 20260507060123 | 12 | 206 | 0.0 | 0.0 | 0.00 | 0.00 | 0.00 | 90 | 1021.1 |
| 20260507055618 | 12 | 206 | 0.0 | 0.0 | 0.00 | 0.00 | 0.00 | 90 | 1021.2 |
| 20260507055114 | 12 | 206 | 0.0 | 0.0 | 0.00 | 0.00 | 0.00 | 90 | 1021.2 |
| 20260507054610 | 12 | 207 | 0.0 | 0.0 | 0.00 | 0.00 | 0.00 | 89 | 1021.2 |
| 20260507054108 | 13 | 207 | 0.0 | 0.0 | 0.00 | 0.00 | 0.00 | 89 | 1021.0 |
| 20260507053605 | 13 | 208 | 0.0 | 0.0 | 0.00 | 0.00 | 0.00 | 88 | 1021.1 |
| 20260507053104 | 13 | 211 | 0.0 | 0.0 | 0.00 | 0.00 | 0.00 | 87 | 1021.0 |
| 20260507052602 | 13 | 225 | 0.0 | 0.0 | 0.00 | 0.00 | 0.00 | 88 | 1021.0 |
| 20260507052058 | 13 | 226 | 0.0 | 0.0 | 0.00 | 0.00 | 0.00 | 87 | 1020.9 |
| 20260507051555 | 13 | 226 | 0.0 | 0.0 | 0.00 | 0.00 | 0.00 | 87 | 1021.0 |
| 20260507051052 | 13 | 227 | 0.0 | 0.0 | 0.00 | 0.00 | 0.00 | 87 | 1020.9 |
| 20260507050549 | 13 | 228 | 0.0 | 0.0 | 0.00 | 0.00 | 0.00 | 87 | 1020.9 |
| 20260507050045 | 13 | 228 | 0.0 | 0.0 | 0.00 | 0.00 | 0.00 | 87 | 1021.0 |
| 20260507045542 | 13 | 228 | 0.0 | 0.0 | 0.00 | 0.00 | 0.00 | 87 | 1020.9 |
| 20260507045039 | 13 | 229 | 0.0 | 0.0 | 0.00 | 0.00 | 0.00 | 86 | 1020.9 |
| 20260507044536 | 13 | 229 | 0.0 | 0.0 | 0.00 | 0.00 | 0.00 | 87 | 1021.0 |
| 20260507044033 | 13 | 229 | 0.0 | 0.0 | 0.00 | 0.00 | 0.00 | 87 | 1021.1 |
| 20260507043528 | 13 | 229 | 0.0 | 0.0 | 0.00 | 0.00 | 0.00 | 86 | 1020.9 |
| 20260507043026 | 13 | 229 | 0.0 | 0.0 | 0.00 | 0.00 | 0.00 | 86 | 1021.0 |
| 20260507042522 | 13 | 229 | 0.0 | 0.0 | 0.00 | 0.00 | 0.00 | 85 | 1020.8 |
| 20260507042017 | 13 | 229 | 0.0 | 0.0 | 0.00 | 0.00 | 0.00 | 85 | 1020.8 |
| 20260507041515 | 13 | 229 | 0.0 | 0.0 | 0.00 | 0.00 | 0.00 | 85 | 1020.9 |
| 20260507041012 | 13 | 229 | 0.0 | 0.0 | 0.00 | 0.00 | 0.00 | 84 | 1020.8 |
| 20260507040508 | 14 | 229 | 0.0 | 0.0 | 0.00 | 0.00 | 0.00 | 83 | 1020.9 |
| 20260507040004 | 14 | 230 | 0.0 | 0.0 | 0.00 | 0.00 | 0.00 | 83 | 1020.7 |
| 20260507035500 | 15 | 230 | 0.0 | 0.0 | 0.00 | 0.00 | 0.00 | 81 | 1020.7 |
| 20260507034956 | 15 | 237 | 0.0 | 0.0 | 0.00 | 0.00 | 0.00 | 82 | 1020.5 |
| 20260507034454 | 14 | 225 | 0.0 | 0.0 | 0.00 | 0.00 | 0.00 | 83 | 1020.7 |
| 20260507033952 | 14 | 191 | 0.0 | 0.0 | 0.00 | 0.00 | 0.00 | 83 | 1020.8 |
| 20260507033449 | 14 | 183 | 0.0 | 0.0 | 0.00 | 0.00 | 0.00 | 82 | 1020.6 |
| 20260507032946 | 14 | 180 | 0.0 | 0.0 | 0.00 | 0.00 | 0.00 | 81 | 1020.8 |
| 20260507032443 | 15 | 193 | 0.0 | 0.0 | 0.00 | 0.00 | 0.00 | 81 | 1020.3 |
| 20260507031939 | 15 | 177 | 0.0 | 0.0 | 0.00 | 0.00 | 0.00 | 80 | 1020.4 |
| 20260507031436 | 15 | 177 | 0.0 | 0.0 | 0.00 | 0.00 | 0.00 | 78 | 1020.6 |
| 20260507030933 | 15 | 177 | 0.0 | 0.0 | 0.00 | 0.00 | 0.00 | 78 | 1020.4 |
| 20260507030430 | 15 | 169 | 0.0 | 0.0 | 0.00 | 0.00 | 0.00 | 77 | 1020.3 |
| 20260507025927 | 15 | 170 | 0.0 | 0.0 | 0.00 | 0.00 | 0.00 | 76 | 1020.0 |
| 20260507025424 | 15 | 164 | 0.0 | 0.0 | 0.00 | 0.00 | 0.00 | 76 | 1020.2 |
| 20260507024922 | 15 | 156 | 0.0 | 0.0 | 0.00 | 0.00 | 0.00 | 75 | 1019.9 |
| 20260507024419 | 16 | 159 | 0.0 | 0.0 | 0.00 | 0.00 | 0.00 | 74 | 1020.1 |
| 20260507023915 | 16 | 168 | 0.0 | 0.0 | 0.00 | 0.00 | 0.00 | 73 | 1019.9 |
| 20260507023412 | 16 | 142 | 0.0 | 0.0 | 0.00 | 0.00 | 0.00 | 73 | 1020.0 |
| 20260507022909 | 16 | 143 | 0.0 | 0.0 | 0.00 | 0.00 | 0.00 | 72 | 1020.0 |
| 20260507022406 | 16 | 143 | 0.0 | 0.0 | 0.00 | 0.00 | 0.00 | 71 | 1020.0 |
| 20260507021901 | 16 | 162 | 0.0 | 0.0 | 0.00 | 0.00 | 0.00 | 71 | 1019.8 |
| 20260507021357 | 17 | 169 | 0.0 | 1.6 | 0.00 | 0.00 | 0.00 | 70 | 1020.0 |
| 20260507020855 | 17 | 175 | 1.6 | 3.2 | 0.00 | 0.00 | 0.00 | 69 | 1019.9 |
| 20260507020351 | 17 | 162 | 0.0 | 4.8 | 0.00 | 0.00 | 0.00 | 68 | 1019.8 |
| 20260507015848 | 17 | 142 | 0.0 | 3.2 | 0.00 | 0.00 | 0.00 | 68 | 1019.9 |
| 20260507015346 | 17 | 167 | 0.0 | 1.6 | 0.00 | 0.00 | 0.00 | 67 | 1019.8 |
| 20260507014844 | 17 | 171 | 0.0 | 4.8 | 0.00 | 0.00 | 0.00 | 67 | 1019.7 |
| 20260507014339 | 17 | 290 | 3.2 | 6.4 | 0.00 | 0.00 | 0.00 | 68 | 1020.0 |
| 20260507013836 | 18 | 263 | 4.8 | 4.8 | 0.00 | 0.00 | 0.00 | 65 | 1019.7 |
| 20260507013333 | 18 | 244 | 1.6 | 4.8 | 0.00 | 0.00 | 0.00 | 65 | 1019.8 |
| 20260507012831 | 18 | 42 | 1.6 | 6.4 | 0.00 | 0.00 | 0.00 | 64 | 1019.9 |
| 20260507012326 | 18 | 267 | 3.2 | 6.4 | 0.00 | 0.00 | 0.00 | 62 | 1019.9 |
| 20260507011824 | 19 | 162 | 0.0 | 1.6 | 0.00 | 0.00 | 0.00 | 61 | 1019.8 |
| 20260507011320 | 19 | 102 | 0.0 | 3.2 | 0.00 | 0.00 | 0.00 | 61 | 1019.7 |
| 20260507010820 | 19 | 171 | 0.0 | 4.8 | 0.00 | 0.00 | 0.00 | 60 | 1019.4 |
| 20260507010316 | 19 | 78 | 1.6 | 11.3 | 0.00 | 0.00 | 0.00 | 61 | 1019.7 |
| 20260507005813 | 20 | 55 | 0.0 | 6.4 | 0.00 | 0.00 | 0.00 | 62 | 1019.9 |
| 20260507005309 | 20 | 132 | 0.0 | 9.7 | 0.00 | 0.00 | 0.00 | 60 | 1019.9 |
| 20260507004801 | 20 | 356 | 1.6 | 3.2 | 0.00 | 0.00 | 0.00 | 60 | 1019.6 |
| 20260507004258 | 20 | 222 | 3.2 | 6.4 | 0.00 | 0.00 | 0.00 | 60 | 1019.7 |
| 20260507003754 | 20 | 176 | 0.0 | 6.4 | 0.00 | 0.00 | 0.00 | 60 | 1019.8 |
| 20260507003250 | 20 | 168 | 3.2 | 4.8 | 0.00 | 0.00 | 0.00 | 59 | 1019.8 |
| 20260507002746 | 20 | 266 | 4.8 | 6.4 | 0.00 | 0.00 | 0.00 | 60 | 1019.7 |
| 20260507002242 | 20 | 296 | 1.6 | 11.3 | 0.00 | 0.00 | 0.00 | 60 | 1019.9 |
| 20260507001739 | 20 | 189 | 1.6 | 6.4 | 0.00 | 0.00 | 0.00 | 59 | 1019.6 |
| 20260507001237 | 21 | 189 | 1.6 | 9.7 | 0.00 | 0.00 | 0.00 | 59 | 1019.9 |
| 20260507000733 | 20 | 83 | 1.6 | 4.8 | 0.00 | 0.00 | 0.00 | 60 | 1019.6 |
| 20260507000228 | 21 | 205 | 1.6 | 4.8 | 0.00 | 0.00 | 0.00 | 57 | 1019.7 |
| 20260506235725 | 20 | 94 | 1.6 | 4.8 | 0.00 | 0.00 | 0.00 | 61 | 1019.3 |
| 20260506235221 | 21 | 199 | 4.8 | 12.9 | 0.00 | 0.00 | 0.00 | 59 | 1019.4 |
| 20260506234718 | 20 | 173 | 3.2 | 4.8 | 0.00 | 0.00 | 0.00 | 61 | 1019.3 |
| 20260506234215 | 21 | 179 | 4.8 | 6.4 | 0.00 | 0.00 | 0.00 | 59 | 1019.8 |
| 20260506233713 | 21 | 192 | 3.2 | 4.8 | 0.00 | 0.00 | 0.00 | 58 | 1019.6 |
| 20260506233209 | 20 | 155 | 3.2 | 9.7 | 0.00 | 0.00 | 0.00 | 61 | 1019.8 |
| 20260506232707 | 21 | 331 | 3.2 | 6.4 | 0.00 | 0.00 | 0.00 | 59 | 1019.6 |
| 20260506232200 | 20 | 215 | 3.2 | 11.3 | 0.00 | 0.00 | 0.00 | 59 | 1019.8 |
| 20260506231658 | 21 | 227 | 6.4 | 11.3 | 0.00 | 0.00 | 0.00 | 59 | 1019.8 |
| 20260506231157 | 21 | 169 | 1.6 | 6.4 | 0.00 | 0.00 | 0.00 | 57 | 1019.9 |
| 20260506230653 | 21 | 244 | 6.4 | 11.3 | 0.00 | 0.00 | 0.00 | 58 | 1019.9 |
| 20260506230150 | 21 | 290 | 3.2 | 9.7 | 0.00 | 0.00 | 0.00 | 58 | 1019.8 |
| 20260506225646 | 21 | 158 | 1.6 | 6.4 | 0.00 | 0.00 | 0.00 | 58 | 1020.0 |
| 20260506225143 | 21 | 238 | 4.8 | 6.4 | 0.00 | 0.00 | 0.00 | 57 | 1019.7 |
| 20260506224639 | 21 | 186 | 6.4 | 11.3 | 0.00 | 0.00 | 0.00 | 58 | 1020.0 |
| 20260506224136 | 21 | 250 | 3.2 | 6.4 | 0.00 | 0.00 | 0.00 | 57 | 1020.0 |
| 20260506223633 | 21 | 287 | 3.2 | 9.7 | 0.00 | 0.00 | 0.00 | 58 | 1020.2 |
| 20260506223128 | 21 | 50 | 0.0 | 9.7 | 0.00 | 0.00 | 0.00 | 58 | 1020.1 |
| 20260506222626 | 22 | 177 | 0.0 | 6.4 | 0.00 | 0.00 | 0.00 | 58 | 1020.2 |
| 20260506222122 | 22 | 199 | 3.2 | 11.3 | 0.00 | 0.00 | 0.00 | 57 | 1020.2 |
| 20260506221620 | 22 | 205 | 3.2 | 11.3 | 0.00 | 0.00 | 0.00 | 58 | 1020.1 |
| 20260506221118 | 21 | 116 | 1.6 | 6.4 | 0.00 | 0.00 | 0.00 | 59 | 1020.4 |
| 20260506220614 | 21 | 295 | 8.0 | 9.7 | 0.00 | 0.00 | 0.00 | 57 | 1020.5 |
| 20260506220109 | 21 | 31 | 3.2 | 4.8 | 0.00 | 0.00 | 0.00 | 57 | 1020.7 |
| 20260506215606 | 21 | 257 | 1.6 | 9.7 | 0.00 | 0.00 | 0.00 | 58 | 1020.7 |
| 20260506215102 | 22 | 289 | 1.6 | 4.8 | 0.00 | 0.00 | 0.00 | 56 | 1020.7 |
| 20260506214559 | 22 | 237 | 1.6 | 6.4 | 0.00 | 0.00 | 0.00 | 55 | 1020.6 |
| 20260506214056 | 22 | 191 | 1.6 | 11.3 | 0.00 | 0.00 | 0.00 | 55 | 1020.8 |
| 20260506213554 | 21 | 172 | 0.0 | 6.4 | 0.00 | 0.00 | 0.00 | 56 | 1020.7 |
| 20260506213051 | 21 | 336 | 1.6 | 3.2 | 0.00 | 0.00 | 0.00 | 54 | 1020.7 |
| 20260506212548 | 22 | 344 | 1.6 | 11.3 | 0.00 | 0.00 | 0.00 | 53 | 1020.7 |
| 20260506212043 | 22 | 159 | 1.6 | 11.3 | 0.00 | 0.00 | 0.00 | 55 | 1021.0 |
| 20260506211539 | 21 | 250 | 6.4 | 12.9 | 0.00 | 0.00 | 0.00 | 56 | 1020.6 |
| 20260506211036 | 21 | 60 | 0.0 | 4.8 | 0.00 | 0.00 | 0.00 | 57 | 1020.9 |
| 20260506210533 | 21 | 285 | 6.4 | 11.3 | 0.00 | 0.00 | 0.00 | 59 | 1021.0 |
| 20260506210029 | 21 | 170 | 3.2 | 9.7 | 0.00 | 0.00 | 0.00 | 60 | 1021.0 |
| 20260506205526 | 21 | 21 | 4.8 | 12.9 | 0.00 | 0.00 | 0.00 | 60 | 1020.9 |
| 20260506205021 | 21 | 221 | 3.2 | 6.4 | 0.00 | 0.00 | 0.00 | 59 | 1020.7 |
| 20260506204520 | 21 | 294 | 3.2 | 12.9 | 0.00 | 0.00 | 0.00 | 61 | 1021.0 |
| 20260506204016 | 21 | 293 | 9.7 | 17.7 | 0.00 | 0.00 | 0.00 | 61 | 1021.0 |
| 20260506203515 | 21 | 317 | 4.8 | 6.4 | 0.00 | 0.00 | 0.00 | 60 | 1021.1 |
| 20260506203010 | 21 | 117 | 0.0 | 6.4 | 0.00 | 0.00 | 0.00 | 61 | 1021.3 |
| 20260506202508 | 21 | 246 | 3.2 | 12.9 | 0.00 | 0.00 | 0.00 | 60 | 1021.2 |
| 20260506202004 | 21 | 29 | 1.6 | 12.9 | 0.00 | 0.00 | 0.00 | 60 | 1021.3 |
| 20260506201502 | 21 | 269 | 3.2 | 12.9 | 0.00 | 0.00 | 0.00 | 60 | 1021.0 |
| 20260506200958 | 22 | 136 | 3.2 | 14.5 | 0.00 | 0.00 | 0.00 | 60 | 1021.1 |
| 20260506200455 | 22 | 331 | 3.2 | 4.8 | 0.00 | 0.00 | 0.00 | 58 | 1021.1 |
| 20260506195951 | 21 | 164 | 0.0 | 9.7 | 0.00 | 0.00 | 0.00 | 61 | 1021.1 |
| 20260506195449 | 21 | 172 | 1.6 | 11.3 | 0.00 | 0.00 | 0.00 | 61 | 1021.5 |
| 20260506194945 | 21 | 254 | 3.2 | 11.3 | 0.00 | 0.00 | 0.00 | 61 | 1021.4 |
| 20260506194442 | 22 | 294 | 6.4 | 17.7 | 0.00 | 0.00 | 0.00 | 59 | 1021.2 |
| 20260506193939 | 22 | 284 | 6.4 | 14.5 | 0.00 | 0.00 | 0.00 | 59 | 1021.3 |
| 20260506193436 | 22 | 199 | 1.6 | 4.8 | 0.00 | 0.00 | 0.00 | 56 | 1021.2 |
| 20260506192932 | 22 | 153 | 0.0 | 1.6 | 0.00 | 0.00 | 0.00 | 55 | 1021.4 |
| 20260506192429 | 22 | 91 | 3.2 | 6.4 | 0.00 | 0.00 | 0.00 | 55 | 1021.6 |
| 20260506191926 | 21 | 161 | 3.2 | 9.7 | 0.00 | 0.00 | 0.00 | 55 | 1021.4 |
| 20260506191423 | 22 | 145 | 0.0 | 3.2 | 0.00 | 0.00 | 0.00 | 53 | 1021.6 |
| 20260506190920 | 21 | 133 | 1.6 | 6.4 | 0.00 | 0.00 | 0.00 | 55 | 1021.5 |
| 20260506190416 | 21 | 250 | 3.2 | 9.7 | 0.00 | 0.00 | 0.00 | 54 | 1021.6 |
| 20260506185913 | 21 | 64 | 0.0 | 6.4 | 0.00 | 0.00 | 0.00 | 54 | 1021.6 |
| 20260506185410 | 21 | 263 | 9.7 | 11.3 | 0.00 | 0.00 | 0.00 | 52 | 1021.7 |
| 20260506184907 | 21 | 226 | 1.6 | 4.8 | 0.00 | 0.00 | 0.00 | 54 | 1021.8 |
| 20260506184404 | 21 | 32 | 0.0 | 4.8 | 0.00 | 0.00 | 0.00 | 55 | 1021.9 |
| 20260506183902 | 21 | 36 | 3.2 | 11.3 | 0.00 | 0.00 | 0.00 | 55 | 1021.8 |
| 20260506183356 | 21 | 267 | 3.2 | 4.8 | 0.00 | 0.00 | 0.00 | 55 | 1021.7 |
| 20260506182854 | 21 | 296 | 4.8 | 11.3 | 0.00 | 0.00 | 0.00 | 55 | 1021.9 |